Shipston-on-Stour, United Kingdom
Current Conditions -  °F | °C
As of 2:50 PM on Tuesday 21 Oct 2014 (Local Time) from EGTK Reporting Station
Rain Showers Rain Showers  
Wind Chill: 11°   Ceiling: Unl
Heat Index: 11°   Visibility: 6mi
Dew Point:   Wind: 15mph
Humidity: 76%   Direction: 290°WNW
Pressure: 29.77"   Gusts: NA
Location:  52.06°N, 1.63°W
Report Text: EGTK 211350Z 29013KT 260V320 9999 VCSH FEW033 SCT037 11/07 Q1008
Loading
Personal Weather Stations






























Interactive Weather Map
Tropical Storm Tracking
New forecast layout! Learn more

10-Day Weather Forecast

Advertisements
Track Severe Weather on mobile